Time;durP1;ratioP1;P1;durP2;ratioP2;P2;SDS_P1;SDS_P2;PMS_P1;PMS_P2;Temp;Humidity;BMP_temperature;BMP_pressure;BME280_temperature;BME280_humidity;BME280_pressure;Samples;Min_cycle;Max_cycle;Signal;HPM_P1;HPM_P2
2023/07/11 00:02:04;;;;;;;3.17;2.90;;;22.10;99.90;;;;;;5130095;27;20309;-81
2023/07/11 00:04:34;;;;;;;3.50;2.95;;;22.10;99.90;;;;;;5130196;27;21052;-83
2023/07/11 00:07:01;;;;;;;2.95;2.75;;;22.10;99.90;;;;;;5130179;27;20239;-83
2023/07/11 00:09:29;;;;;;;3.80;3.13;;;22.00;99.90;;;;;;5118174;27;20297;-83
2023/07/11 00:11:56;;;;;;;3.05;2.78;;;22.00;99.90;;;;;;5126046;27;20841;-83
2023/07/11 00:14:23;;;;;;;3.05;2.85;;;21.90;99.90;;;;;;5115755;27;20285;-83
2023/07/11 00:16:50;;;;;;;3.72;2.88;;;22.00;99.90;;;;;;5109396;28;20218;-83
2023/07/11 00:19:19;;;;;;;3.58;3.22;;;21.90;99.90;;;;;;5120435;27;20210;-81
2023/07/11 00:21:46;;;;;;;3.10;2.80;;;21.90;99.90;;;;;;5129837;27;20249;-80
2023/07/11 00:24:14;;;;;;;3.10;2.45;;;21.80;99.90;;;;;;5129979;27;20202;-80
2023/07/11 00:26:43;;;;;;;3.17;2.88;;;21.80;99.90;;;;;;5129219;27;20328;-80
2023/07/11 00:29:17;;;;;;;2.97;2.78;;;21.80;99.90;;;;;;5129953;27;20760;-80
2023/07/11 00:31:44;;;;;;;3.15;2.95;;;21.70;99.90;;;;;;5123805;27;20232;-80
2023/07/11 00:34:11;;;;;;;2.90;2.70;;;21.70;99.90;;;;;;5117891;27;20289;-80
2023/07/11 00:36:38;;;;;;;3.70;3.10;;;21.60;99.90;;;;;;5122450;27;20212;-80
2023/07/11 00:39:05;;;;;;;3.00;2.80;;;21.60;99.90;;;;;;5129634;27;20215;-81
2023/07/11 00:41:32;;;;;;;3.30;2.80;;;21.60;99.90;;;;;;5129118;27;20209;-81
2023/07/11 00:44:00;;;;;;;3.22;2.95;;;21.50;99.90;;;;;;5129683;27;20205;-82
2023/07/11 00:46:28;;;;;;;3.35;3.03;;;21.50;99.90;;;;;;5126933;27;20209;-79
2023/07/11 00:48:58;;;;;;;3.33;3.05;;;21.50;99.90;;;;;;5116356;27;20269;-79
2023/07/11 00:51:29;;;;;;;5.97;3.15;;;21.50;99.90;;;;;;5110780;27;20700;-79
2023/07/11 00:53:56;;;;;;;3.50;3.20;;;21.50;99.90;;;;;;5108948;28;20199;-79
2023/07/11 00:56:26;;;;;;;4.03;3.08;;;21.50;99.90;;;;;;5108495;28;20242;-79
2023/07/11 00:58:54;;;;;;;3.88;2.63;;;21.40;99.90;;;;;;5126170;27;20216;-79
2023/07/11 01:01:23;;;;;;;3.30;3.00;;;21.40;99.90;;;;;;5129014;27;20256;-80
2023/07/11 01:03:52;;;;;;;2.88;2.67;;;21.40;99.90;;;;;;5128847;27;20356;-82
2023/07/11 01:06:22;;;;;;;3.40;3.20;;;21.30;99.90;;;;;;5114322;27;21586;-82
2023/07/11 01:08:52;;;;;;;3.00;2.80;;;21.30;99.90;;;;;;5128300;27;20226;-82
2023/07/11 01:11:20;;;;;;;3.30;3.00;;;21.20;99.90;;;;;;5128830;27;20193;-82
2023/07/11 01:13:47;;;;;;;3.13;2.83;;;21.10;99.90;;;;;;5128469;27;20225;-82
2023/07/11 01:16:14;;;;;;;3.15;2.95;;;21.00;99.90;;;;;;5128420;27;20209;-82
2023/07/11 01:18:43;;;;;;;2.78;2.58;;;21.00;99.90;;;;;;5129027;27;20320;-82
2023/07/11 01:21:14;;;;;;;3.55;3.00;;;20.90;99.90;;;;;;5128346;27;20229;-82
2023/07/11 01:23:41;;;;;;;3.65;3.00;;;21.00;99.90;;;;;;5128299;27;20656;-82
2023/07/11 01:26:08;;;;;;;3.15;2.85;;;20.90;99.90;;;;;;5128115;27;20209;-82
2023/07/11 01:28:35;;;;;;;3.78;2.92;;;21.00;99.90;;;;;;5127830;27;20729;-82
2023/07/11 01:31:03;;;;;;;3.38;2.92;;;21.00;99.90;;;;;;5128506;27;20256;-82
2023/07/11 01:33:30;;;;;;;2.97;2.72;;;21.00;99.90;;;;;;5128528;27;20301;-82
2023/07/11 01:35:57;;;;;;;3.30;3.10;;;20.90;99.90;;;;;;5128811;27;20201;-79
2023/07/11 01:38:26;;;;;;;3.95;2.95;;;20.90;99.90;;;;;;5128003;27;20244;-80
2023/07/11 01:40:53;;;;;;;3.45;3.17;;;20.90;99.90;;;;;;5127923;27;20577;-79
2023/07/11 01:43:21;;;;;;;3.30;2.95;;;20.90;99.90;;;;;;5109202;27;20922;-79
2023/07/11 01:45:48;;;;;;;3.17;2.80;;;20.90;99.90;;;;;;5107342;28;20217;-79
2023/07/11 01:48:15;;;;;;;3.97;3.00;;;20.90;99.90;;;;;;5124741;27;20231;-79
2023/07/11 01:50:42;;;;;;;4.33;2.83;;;20.80;99.90;;;;;;5114785;27;20305;-79
2023/07/11 01:53:08;;;;;;;3.83;3.45;;;20.80;99.90;;;;;;5107698;27;20245;-79
2023/07/11 01:55:37;;;;;;;3.25;2.72;;;20.80;99.90;;;;;;5127417;27;20201;-77
2023/07/11 01:58:04;;;;;;;3.95;2.75;;;20.70;99.90;;;;;;5127157;27;20211;-78
2023/07/11 02:00:31;;;;;;;3.43;3.13;;;20.70;99.90;;;;;;5127178;27;20229;-78
2023/07/11 02:02:58;;;;;;;3.55;3.10;;;20.70;99.90;;;;;;5111795;27;20293;-78
2023/07/11 02:05:24;;;;;;;3.13;2.88;;;20.70;99.90;;;;;;5127742;27;20270;-77
2023/07/11 02:07:51;;;;;;;3.35;3.05;;;20.70;99.90;;;;;;5123125;27;20322;-77
2023/07/11 02:10:18;;;;;;;4.07;3.33;;;20.60;99.90;;;;;;5127810;27;20299;-77
2023/07/11 02:12:46;;;;;;;3.50;3.20;;;20.60;99.90;;;;;;5127131;27;20216;-77
2023/07/11 02:15:13;;;;;;;8.93;3.00;;;20.60;99.90;;;;;;5128219;27;20213;-78
2023/07/11 02:17:40;;;;;;;3.20;3.00;;;20.60;99.90;;;;;;5118169;27;20431;-78
2023/07/11 02:20:09;;;;;;;3.97;3.05;;;20.50;99.90;;;;;;5109604;27;20218;-78
2023/07/11 02:22:36;;;;;;;4.40;3.28;;;20.50;99.90;;;;;;5107069;28;20263;-78
2023/07/11 02:25:04;;;;;;;3.33;3.13;;;20.50;99.90;;;;;;5106324;28;20289;-78
2023/07/11 02:27:31;;;;;;;3.17;2.97;;;20.40;99.90;;;;;;5106488;28;20221;-78
2023/07/11 02:29:59;;;;;;;3.53;3.20;;;20.40;99.90;;;;;;5107120;28;20230;-78
2023/07/11 02:32:26;;;;;;;3.30;3.00;;;20.30;99.90;;;;;;5107096;28;20202;-78
2023/07/11 02:34:53;;;;;;;3.27;2.97;;;20.30;99.90;;;;;;5107159;28;20210;-78
2023/07/11 02:37:20;;;;;;;3.57;3.00;;;20.30;99.90;;;;;;5107385;28;20296;-78
2023/07/11 04:07:24;;;;;;;4.43;3.97;;;20.30;99.90;;;;;;5097032;28;20240;-79
2023/07/11 04:09:51;;;;;;;4.47;4.07;;;20.40;99.90;;;;;;5105468;28;20222;-80
2023/07/11 04:12:18;;;;;;;4.07;3.77;;;20.40;99.90;;;;;;5111118;27;20293;-80
2023/07/11 04:14:47;;;;;;;4.67;3.70;;;20.50;99.90;;;;;;5129415;27;20205;-81
2023/07/11 04:17:13;;;;;;;4.87;4.37;;;20.60;99.90;;;;;;5118081;27;20265;-80
2023/07/11 04:19:40;;;;;;;5.30;3.90;;;20.60;99.90;;;;;;5109216;28;20209;-81
2023/07/11 04:22:07;;;;;;;4.60;3.88;;;20.60;99.90;;;;;;5109240;28;20301;-81
2023/07/11 04:24:36;;;;;;;5.93;3.70;;;20.70;99.90;;;;;;5109298;27;20412;-81
2023/07/11 04:27:03;;;;;;;4.40;4.00;;;20.70;99.90;;;;;;5108798;28;20304;-80
2023/07/11 04:29:30;;;;;;;4.37;4.00;;;20.70;99.90;;;;;;5109257;28;20337;-81
2023/07/11 04:31:56;;;;;;;4.18;3.85;;;20.70;99.90;;;;;;5108967;28;20301;-81
2023/07/11 04:34:23;;;;;;;4.10;3.80;;;20.70;99.90;;;;;;5118770;27;20232;-81
2023/07/11 04:36:50;;;;;;;4.40;4.10;;;20.80;99.90;;;;;;5129146;27;20241;-80
2023/07/11 04:39:17;;;;;;;4.28;3.97;;;20.80;99.90;;;;;;5129565;27;20205;-81
2023/07/11 04:41:45;;;;;;;4.38;3.97;;;20.80;99.90;;;;;;5129322;27;20296;-81
2023/07/11 04:44:12;;;;;;;4.85;4.45;;;20.80;99.90;;;;;;5130026;27;20209;-81
2023/07/11 04:46:39;;;;;;;4.80;4.45;;;20.90;99.90;;;;;;5124969;27;20297;-81
2023/07/11 04:49:06;;;;;;;5.80;4.93;;;20.90;99.90;;;;;;5138757;27;20236;-81
2023/07/11 04:51:33;;;;;;;4.53;4.13;;;20.90;99.90;;;;;;5114747;27;20201;-81
2023/07/11 04:54:00;;;;;;;4.90;4.50;;;20.90;99.90;;;;;;5123384;27;20694;-81
2023/07/11 04:56:27;;;;;;;5.05;4.50;;;21.00;99.90;;;;;;5108203;28;20680;-80
2023/07/11 04:58:55;;;;;;;5.05;4.65;;;21.00;99.90;;;;;;5108389;28;20267;-79
2023/07/11 05:01:22;;;;;;;5.15;4.47;;;21.00;99.90;;;;;;5108166;28;20301;-79
2023/07/11 05:03:49;;;;;;;5.25;4.75;;;21.00;99.90;;;;;;5111350;27;20668;-79
2023/07/11 05:06:16;;;;;;;5.25;4.85;;;21.00;99.90;;;;;;5129184;27;20237;-80
2023/07/11 05:08:44;;;;;;;5.18;4.68;;;21.10;99.90;;;;;;5128369;27;20337;-79
2023/07/11 05:11:13;;;;;;;5.13;4.82;;;21.10;99.90;;;;;;5128918;27;20209;-79
2023/07/11 05:13:41;;;;;;;5.65;5.13;;;21.10;99.90;;;;;;5128284;27;20206;-79
2023/07/11 05:16:12;;;;;;;5.85;5.30;;;21.10;99.90;;;;;;5128712;27;20269;-79
2023/07/11 05:18:40;;;;;;;5.70;5.33;;;21.20;99.90;;;;;;5123241;27;20238;-81
2023/07/11 05:21:08;;;;;;;6.43;5.90;;;21.20;99.90;;;;;;5108181;28;20610;-80
2023/07/11 05:23:36;;;;;;;5.68;5.18;;;21.20;99.90;;;;;;5109655;27;20293;-80
2023/07/11 05:26:03;;;;;;;5.30;4.80;;;21.30;99.90;;;;;;5128422;27;20668;-80
2023/07/11 05:28:31;;;;;;;5.25;4.75;;;21.30;99.90;;;;;;5128330;27;20226;-80
2023/07/11 05:31:00;;;;;;;5.78;5.30;;;21.40;99.90;;;;;;5128250;27;20211;-80
2023/07/11 05:33:29;;;;;;;5.80;5.20;;;21.40;99.90;;;;;;5126763;27;20208;-80
2023/07/11 05:36:05;;;;;;;5.65;5.15;;;21.40;99.90;;;;;;5107597;28;20297;-76
2023/07/11 05:38:32;;;;;;;5.35;4.50;;;21.50;99.90;;;;;;5107364;28;20241;-77
2023/07/11 05:41:00;;;;;;;4.82;4.43;;;21.50;99.90;;;;;;5115696;27;20288;-77
2023/07/11 05:43:27;;;;;;;4.63;4.32;;;21.50;99.90;;;;;;5127617;27;20316;-77
2023/07/11 05:45:54;;;;;;;4.85;4.55;;;21.50;99.90;;;;;;5126969;27;20715;-77
2023/07/11 05:48:21;;;;;;;4.55;4.15;;;21.60;99.90;;;;;;5117766;27;20596;-77
2023/07/11 05:50:59;;;;;;;5.30;4.90;;;21.60;99.90;;;;;;5135128;27;20224;-77
2023/07/11 05:53:26;;;;;;;4.72;4.43;;;21.60;99.90;;;;;;5127106;27;20656;-77
2023/07/11 05:55:53;;;;;;;4.63;4.38;;;21.70;99.90;;;;;;5107247;28;20320;-77
2023/07/11 05:58:20;;;;;;;4.93;4.63;;;21.70;99.90;;;;;;5107074;28;20206;-78
2023/07/11 06:00:47;;;;;;;4.68;4.32;;;21.70;99.90;;;;;;5106812;28;20237;-78
2023/07/11 06:03:14;;;;;;;4.55;4.15;;;21.70;99.90;;;;;;5108522;27;20675;-78
2023/07/11 06:05:42;;;;;;;4.50;4.20;;;21.70;99.90;;;;;;5119111;27;20284;-78
2023/07/11 06:08:12;;;;;;;4.78;4.38;;;21.80;99.90;;;;;;5109118;27;20818;-80
2023/07/11 06:10:39;;;;;;;4.32;3.95;;;21.80;99.90;;;;;;5115596;27;20872;-79
2023/07/11 06:13:06;;;;;;;4.38;3.97;;;21.80;99.90;;;;;;5117222;27;20229;-79
2023/07/11 06:15:33;;;;;;;4.30;3.95;;;21.90;99.90;;;;;;5116557;27;20208;-81
2023/07/11 06:18:00;;;;;;;4.05;3.75;;;21.90;99.90;;;;;;5115170;27;20205;-81
2023/07/11 06:20:27;;;;;;;3.83;3.53;;;21.90;99.90;;;;;;5126753;27;20205;-80
2023/07/11 06:22:55;;;;;;;3.78;3.45;;;22.00;99.90;;;;;;5125653;27;20730;-81
2023/07/11 06:25:23;;;;;;;4.10;3.70;;;22.00;99.90;;;;;;5110433;27;20661;-79
2023/07/11 06:27:50;;;;;;;5.15;3.75;;;22.00;99.90;;;;;;5108259;27;20228;-81
2023/07/11 06:30:17;;;;;;;4.28;3.60;;;22.10;99.90;;;;;;5105119;28;20769;-80
2023/07/11 06:32:44;;;;;;;3.65;3.35;;;22.00;99.90;;;;;;5105984;28;20206;-80
2023/07/11 06:35:11;;;;;;;3.35;3.08;;;22.00;99.90;;;;;;5116020;27;20289;-81
2023/07/11 06:37:38;;;;;;;3.72;3.40;;;22.00;99.90;;;;;;5119438;27;20736;-81
2023/07/11 06:40:08;;;;;;;3.20;3.00;;;22.10;99.90;;;;;;5114587;27;20634;-82
2023/07/11 06:42:37;;;;;;;3.53;2.95;;;22.10;99.90;;;;;;5114812;27;20206;-78
2023/07/11 06:45:05;;;;;;;4.28;3.15;;;22.00;99.90;;;;;;5108705;27;20217;-81
2023/07/11 06:47:34;;;;;;;6.43;3.28;;;22.10;99.90;;;;;;5112806;27;20201;-81
2023/07/11 06:50:01;;;;;;;27.30;4.63;;;22.10;99.90;;;;;;5133818;27;20306;-70
2023/07/11 06:52:29;;;;;;;4.40;3.10;;;22.10;99.90;;;;;;5125100;27;20271;-81
2023/07/11 06:54:56;;;;;;;3.00;2.80;;;22.10;99.90;;;;;;5125079;27;20263;-82
2023/07/11 06:57:23;;;;;;;2.92;2.70;;;22.10;99.90;;;;;;5120046;27;20198;-83
2023/07/11 06:59:51;;;;;;;3.83;2.70;;;22.20;99.90;;;;;;5118410;27;20216;-73
2023/07/11 07:02:18;;;;;;;3.08;2.80;;;22.30;99.90;;;;;;5105424;28;20290;-85
2023/07/11 07:04:45;;;;;;;5.15;3.17;;;22.30;99.90;;;;;;5114010;27;20606;-82
2023/07/11 07:07:12;;;;;;;4.28;2.70;;;22.30;99.90;;;;;;5124774;28;20233;-76
2023/07/11 07:09:39;;;;;;;2.97;2.80;;;22.30;99.90;;;;;;5125206;28;20228;-77
2023/07/11 07:12:07;;;;;;;3.60;2.80;;;22.40;99.90;;;;;;5124975;28;20585;-77
2023/07/11 07:14:34;;;;;;;3.13;2.83;;;22.40;99.90;;;;;;5125150;28;20206;-77
2023/07/11 07:17:03;;;;;;;3.22;3.03;;;22.50;99.90;;;;;;5125598;28;20211;-77
2023/07/11 07:19:30;;;;;;;2.90;2.50;;;22.50;99.90;;;;;;5124574;27;20225;-80
2023/07/11 07:21:57;;;;;;;2.95;2.75;;;22.60;99.90;;;;;;5125276;28;20240;-76
2023/07/11 07:24:24;;;;;;;2.92;2.72;;;22.60;99.90;;;;;;5123813;28;20689;-70
2023/07/11 07:26:51;;;;;;;3.03;2.60;;;22.60;99.90;;;;;;5124621;28;20205;-78
2023/07/11 07:29:18;;;;;;;3.22;2.75;;;22.60;99.90;;;;;;5124227;28;20312;-78
2023/07/11 07:31:45;;;;;;;3.60;2.78;;;22.60;99.90;;;;;;5124075;28;20296;-79
2023/07/11 07:34:13;;;;;;;3.25;3.00;;;22.60;99.90;;;;;;5121137;28;20628;-79
2023/07/11 07:36:40;;;;;;;4.93;3.35;;;22.70;99.90;;;;;;5104195;28;20216;-79
2023/07/11 07:39:07;;;;;;;3.35;2.90;;;22.70;99.90;;;;;;5128351;27;20306;-77
2023/07/11 07:41:34;;;;;;;4.63;3.30;;;22.80;99.90;;;;;;5119877;27;20293;-78
2023/07/11 07:44:01;;;;;;;3.88;3.45;;;22.80;99.90;;;;;;5104379;28;20242;-77
2023/07/11 07:46:28;;;;;;;2.92;2.72;;;22.90;99.90;;;;;;5125307;27;20207;-79
2023/07/11 07:48:55;;;;;;;3.60;2.83;;;22.90;99.90;;;;;;5137426;27;20228;-79
2023/07/11 07:51:23;;;;;;;4.43;2.97;;;23.00;99.90;;;;;;5144082;27;20293;-79
2023/07/11 07:53:50;;;;;;;2.50;2.33;;;23.00;99.90;;;;;;5116271;27;20229;-79
2023/07/11 07:56:19;;;;;;;2.83;2.60;;;23.10;99.90;;;;;;5127725;27;20202;-79
2023/07/11 07:58:46;;;;;;;4.20;2.72;;;23.10;99.90;;;;;;5126046;27;20569;-79
2023/07/11 08:01:15;;;;;;;2.88;2.58;;;23.10;99.90;;;;;;5117797;27;20194;-79
2023/07/11 08:03:42;;;;;;;2.67;2.30;;;23.10;99.90;;;;;;5124578;27;20296;-80
2023/07/11 08:06:10;;;;;;;3.80;2.60;;;23.20;99.90;;;;;;5126844;27;20291;-80
2023/07/11 08:08:39;;;;;;;2.83;2.47;;;23.20;99.90;;;;;;5108857;28;20248;-79
2023/07/11 08:11:07;;;;;;;2.58;2.45;;;23.20;99.90;;;;;;5109159;28;20748;-79
2023/07/11 08:13:35;;;;;;;4.97;2.38;;;23.20;99.90;;;;;;5123610;27;20297;-80
2023/07/11 08:16:02;;;;;;;2.72;2.53;;;23.20;99.90;;;;;;5129378;27;20216;-79
2023/07/11 08:18:29;;;;;;;1.90;1.77;;;23.20;99.90;;;;;;5126620;27;20197;-80
2023/07/11 08:20:56;;;;;;;3.13;2.15;;;23.30;99.90;;;;;;5129735;27;20201;-79
2023/07/11 08:23:23;;;;;;;2.58;2.30;;;23.30;99.90;;;;;;5129835;27;20288;-79
2023/07/11 08:25:53;;;;;;;4.05;2.25;;;23.30;99.90;;;;;;5129377;27;20201;-79
2023/07/11 08:28:20;;;;;;;2.85;2.30;;;23.40;99.90;;;;;;5128611;27;20278;-79
2023/07/11 08:30:47;;;;;;;2.25;2.15;;;23.40;99.90;;;;;;5129865;27;20666;-79
2023/07/11 08:33:15;;;;;;;2.83;2.53;;;23.40;99.90;;;;;;5127563;27;20216;-80
2023/07/11 08:35:42;;;;;;;2.38;2.17;;;23.50;99.90;;;;;;5129148;27;20869;-79
2023/07/11 08:38:11;;;;;;;3.67;2.35;;;23.60;99.90;;;;;;5127292;27;20292;-80
2023/07/11 08:40:42;;;;;;;3.13;1.80;;;23.60;99.90;;;;;;5108372;28;20217;-79
2023/07/11 08:43:17;;;;;;;2.08;1.88;;;23.60;99.90;;;;;;5108505;28;20197;-79
2023/07/11 08:45:49;;;;;;;2.15;2.00;;;23.60;99.90;;;;;;5108379;28;20201;-79
2023/07/11 08:48:21;;;;;;;3.67;1.90;;;23.70;99.90;;;;;;5113145;27;20277;-79
2023/07/11 08:51:00;;;;;;;3.00;2.00;;;23.70;99.90;;;;;;5135673;27;20345;-79
2023/07/11 08:53:31;;;;;;;3.20;1.90;;;23.80;99.90;;;;;;5128297;27;20719;-79
2023/07/11 08:56:06;;;;;;;2.50;2.05;;;23.80;99.90;;;;;;5128497;27;20219;-79
2023/07/11 08:58:38;;;;;;;2.03;1.92;;;23.80;99.90;;;;;;5117975;27;20193;-79
2023/07/11 09:01:17;;;;;;;2.05;1.85;;;23.90;99.90;;;;;;5128855;27;20220;-79
2023/07/11 09:03:48;;;;;;;2.45;2.08;;;23.90;99.90;;;;;;5128541;27;20198;-79
2023/07/11 09:06:19;;;;;;;1.80;1.70;;;23.90;99.90;;;;;;5128694;27;20278;-79
2023/07/11 09:08:48;;;;;;;2.15;1.60;;;24.00;99.90;;;;;;5115077;27;20233;-80
2023/07/11 09:11:21;;;;;;;5.38;1.80;;;24.00;99.90;;;;;;5128169;27;20209;-79
2023/07/11 09:14:00;;;;;;;2.95;1.65;;;24.10;99.90;;;;;;5128167;27;20197;-79
2023/07/11 09:16:35;;;;;;;2.78;1.70;;;24.10;99.90;;;;;;5127430;27;20217;-79
2023/07/11 09:19:24;;;;;;;2.47;1.58;;;24.20;99.90;;;;;;5119198;27;20205;-79
2023/07/11 09:21:57;;;;;;;3.47;1.75;;;24.20;99.90;;;;;;5107366;28;20641;-79
2023/07/11 09:24:38;;;;;;;2.97;1.50;;;24.30;99.90;;;;;;5107836;28;20197;-78
2023/07/11 09:27:20;;;;;;;4.40;2.10;;;24.30;99.90;;;;;;5107389;28;20809;-79
2023/07/11 09:29:50;;;;;;;3.03;2.00;;;24.40;99.90;;;;;;5107397;28;20218;-79
2023/07/11 09:32:18;;;;;;;1.67;1.58;;;24.50;99.90;;;;;;5107065;28;20297;-79
2023/07/11 09:34:47;;;;;;;3.35;2.10;;;24.50;99.90;;;;;;5108363;27;20769;-78
2023/07/11 09:37:26;;;;;;;2.20;2.00;;;24.60;99.90;;;;;;5115825;27;20308;-79
2023/07/11 09:39:58;;;;;;;3.67;1.85;;;24.70;99.90;;;;;;5122358;27;20205;-79
2023/07/11 09:42:39;;;;;;;2.45;1.98;;;24.80;99.90;;;;;;5127305;27;20309;-79
2023/07/11 09:45:11;;;;;;;2.00;1.90;;;24.80;99.90;;;;;;5127429;27;20189;-81
2023/07/11 09:47:40;;;;;;;4.38;2.10;;;24.90;99.90;;;;;;5127907;27;20194;-79
2023/07/11 09:50:22;;;;;;;3.58;1.88;;;25.00;99.90;;;;;;5115261;27;20252;-78
2023/07/11 09:52:49;;;;;;;5.10;2.08;;;25.00;99.90;;;;;;5115779;27;20282;-78
2023/07/11 09:55:25;;;;;;;4.07;1.80;;;25.10;99.90;;;;;;5106825;28;20297;-79
2023/07/11 09:57:52;;;;;;;5.03;1.88;;;25.20;99.90;;;;;;5106809;28;20571;-78
2023/07/11 10:00:20;;;;;;;1.98;1.88;;;25.20;99.90;;;;;;5114597;27;20675;-78
2023/07/11 10:02:48;;;;;;;2.38;1.73;;;25.30;99.90;;;;;;5123301;27;20605;-79
2023/07/11 10:05:16;;;;;;;2.55;1.88;;;25.30;99.90;;;;;;5127083;27;20243;-79
2023/07/11 10:07:43;;;;;;;3.10;2.30;;;25.40;99.90;;;;;;5126742;27;20233;-79
2023/07/11 10:10:14;;;;;;;2.25;1.88;;;25.50;99.90;;;;;;5121458;27;20245;-78
2023/07/11 10:12:43;;;;;;;4.63;2.15;;;25.60;99.90;;;;;;5123482;27;20285;-79
2023/07/11 10:15:15;;;;;;;2.65;1.90;;;25.60;99.90;;;;;;5126909;27;20229;-79
2023/07/11 10:17:45;;;;;;;3.88;1.92;;;25.70;99.90;;;;;;5126533;27;20308;-79
2023/07/11 10:20:16;;;;;;;3.40;1.90;;;25.70;99.90;;;;;;5109634;27;20259;-78
2023/07/11 10:22:45;;;;;;;2.63;2.10;;;25.80;99.90;;;;;;5106282;28;20194;-79
2023/07/11 10:25:18;;;;;;;1.85;1.70;;;25.80;99.90;;;;;;5124453;27;20315;-78
2023/07/11 10:27:51;;;;;;;2.15;1.95;;;25.90;99.90;;;;;;5126165;27;20303;-78
2023/07/11 10:30:21;;;;;;;2.22;1.85;;;26.00;99.90;;;;;;5105834;28;20218;-79
2023/07/11 10:32:56;;;;;;;2.20;2.00;;;26.00;99.60;;;;;;5106057;28;20237;-78
2023/07/11 10:35:25;;;;;;;4.03;2.00;;;26.10;99.60;;;;;;5123041;27;20249;-78
2023/07/11 10:37:56;;;;;;;7.53;2.55;;;26.20;99.90;;;;;;5133221;27;20206;-79
2023/07/11 10:40:27;;;;;;;3.28;2.33;;;26.40;99.60;;;;;;5114418;27;20294;-78
2023/07/11 10:43:03;;;;;;;2.50;2.30;;;26.50;99.20;;;;;;5105874;28;20814;-79
2023/07/11 10:45:35;;;;;;;2.80;2.20;;;26.70;99.00;;;;;;5109958;27;20200;-79
2023/07/11 10:48:18;;;;;;;2.25;2.05;;;26.80;99.40;;;;;;5106345;27;20218;-78
2023/07/11 10:50:48;;;;;;;3.60;2.05;;;26.90;99.00;;;;;;5126413;27;20225;-78
2023/07/11 10:53:22;;;;;;;2.03;1.90;;;26.90;97.60;;;;;;5126805;27;20205;-78
2023/07/11 10:55:55;;;;;;;2.67;2.00;;;27.00;96.40;;;;;;5120020;27;20225;-78
2023/07/11 10:58:24;;;;;;;3.97;2.47;;;27.10;96.80;;;;;;5116599;27;20193;-79
2023/07/11 11:01:06;;;;;;;2.15;1.95;;;27.30;96.50;;;;;;5125889;27;20212;-79
2023/07/11 11:03:39;;;;;;;2.17;2.00;;;27.40;96.30;;;;;;5126300;27;20216;-79
2023/07/11 11:06:35;;;;;;;3.33;2.05;;;27.50;96.70;;;;;;5124492;27;20289;-78
2023/07/11 11:09:11;;;;;;;2.65;1.98;;;27.70;95.90;;;;;;5126207;28;20193;-78
2023/07/11 11:11:50;;;;;;;3.00;2.20;;;27.80;96.20;;;;;;5111154;28;20313;-78
2023/07/11 11:14:21;;;;;;;2.50;1.83;;;27.90;96.00;;;;;;5106875;28;20188;-78
2023/07/11 11:17:02;;;;;;;2.65;2.00;;;28.00;96.20;;;;;;5105740;28;20289;-78
2023/07/11 11:19:43;;;;;;;3.40;2.10;;;28.20;96.00;;;;;;5105440;28;20298;-80
2023/07/11 11:22:20;;;;;;;2.22;2.03;;;28.40;95.80;;;;;;5109112;28;20189;-79
2023/07/11 11:24:57;;;;;;;4.53;2.35;;;28.40;95.40;;;;;;5114823;27;20643;-79
2023/07/11 11:27:46;;;;;;;4.05;2.30;;;28.60;96.00;;;;;;5109450;28;20559;-79
2023/07/11 11:30:28;;;;;;;2.20;2.10;;;28.50;94.90;;;;;;5109636;28;20324;-78
2023/07/11 11:33:05;;;;;;;2.85;2.38;;;28.70;95.80;;;;;;5144582;27;20305;-78
2023/07/11 11:35:42;;;;;;;2.70;2.03;;;29.00;95.30;;;;;;5114259;27;20537;-79
2023/07/11 11:38:30;;;;;;;2.40;2.20;;;29.10;95.00;;;;;;5109517;28;20198;-78
2023/07/11 11:41:00;;;;;;;2.85;2.20;;;29.00;94.70;;;;;;5109170;28;20277;-78
2023/07/11 11:43:28;;;;;;;4.03;2.17;;;29.00;94.30;;;;;;5108894;28;20301;-79
2023/07/11 11:45:56;;;;;;;2.65;2.00;;;29.10;94.40;;;;;;5122241;27;20200;-79
2023/07/11 11:48:26;;;;;;;2.33;2.10;;;29.20;94.60;;;;;;5124148;27;20634;-79
2023/07/11 11:50:56;;;;;;;2.15;2.03;;;29.40;94.90;;;;;;5109170;28;20308;-79
2023/07/11 11:53:32;;;;;;;2.00;1.90;;;29.50;93.90;;;;;;5109085;28;20725;-78
2023/07/11 11:56:01;;;;;;;3.13;2.17;;;29.60;94.30;;;;;;5117791;27;20823;-78
2023/07/11 11:58:30;;;;;;;3.22;2.13;;;29.80;93.40;;;;;;5109287;28;20306;-79
2023/07/11 12:00:58;;;;;;;3.50;2.33;;;29.80;93.20;;;;;;5109146;28;20739;-79
2023/07/11 12:03:30;;;;;;;5.10;2.03;;;29.90;93.50;;;;;;5111496;27;21045;-78
2023/07/11 12:06:00;;;;;;;4.47;2.25;;;29.70;93.20;;;;;;5123167;27;20197;-79
2023/07/11 12:08:31;;;;;;;2.42;1.85;;;29.90;92.60;;;;;;5113732;27;20254;-79
2023/07/11 12:11:30;;;;;;;3.25;2.35;;;30.00;93.00;;;;;;5109350;28;20275;-79
2023/07/11 12:14:19;;;;;;;2.35;2.10;;;30.20;92.80;;;;;;5109288;28;20210;-79
2023/07/11 12:16:50;;;;;;;4.35;2.17;;;30.30;91.70;;;;;;5108364;28;20194;-79
2023/07/11 12:19:33;;;;;;;1.90;1.80;;;30.40;91.90;;;;;;5123483;27;20953;-79
2023/07/11 12:22:05;;;;;;;6.18;2.28;;;30.50;91.30;;;;;;5108771;28;20264;-78
2023/07/11 12:24:45;;;;;;;3.08;2.10;;;30.70;91.10;;;;;;5112545;27;20569;-78
2023/07/11 12:27:42;;;;;;;2.70;2.28;;;30.90;91.50;;;;;;5129742;27;20634;-78
2023/07/11 12:30:41;;;;;;;4.03;2.35;;;31.10;91.60;;;;;;5104380;27;20224;-79
2023/07/11 12:33:37;;;;;;;2.78;2.22;;;31.40;92.30;;;;;;5149274;27;20197;-79
2023/07/11 12:36:48;;;;;;;4.80;2.53;;;31.50;91.00;;;;;;5136022;27;20218;-78
2023/07/11 12:39:28;;;;;;;2.40;2.17;;;31.60;90.90;;;;;;5079089;27;20238;-79
2023/07/11 12:42:05;;;;;;;3.75;2.50;;;31.80;90.60;;;;;;5107927;28;20725;-78
2023/07/11 12:44:35;;;;;;;2.90;2.60;;;31.90;90.50;;;;;;5107912;28;20228;-78
2023/07/11 12:47:07;;;;;;;4.30;2.50;;;31.70;89.70;;;;;;5108286;28;20576;-78
2023/07/11 12:49:37;;;;;;;2.70;2.10;;;31.90;90.10;;;;;;5108178;28;20302;-79
2023/07/11 12:52:06;;;;;;;9.45;5.40;;;31.90;90.40;;;;;;5107707;28;20240;-79
2023/07/11 12:54:35;;;;;;;3.30;2.40;;;32.10;90.20;;;;;;5114490;27;21010;-79
2023/07/11 12:57:02;;;;;;;2.20;2.10;;;32.20;89.80;;;;;;5127893;27;20201;-79
2023/07/11 12:59:31;;;;;;;4.28;2.53;;;32.30;89.30;;;;;;5128289;27;20209;-78
2023/07/11 13:01:59;;;;;;;3.20;2.28;;;32.40;88.00;;;;;;5128742;27;20574;-78
2023/07/11 13:04:35;;;;;;;2.35;2.15;;;32.60;87.90;;;;;;5122286;27;20726;-79
2023/07/11 13:07:04;;;;;;;4.05;2.40;;;32.70;89.10;;;;;;5107547;28;20229;-79
2023/07/11 13:09:42;;;;;;;2.88;2.40;;;32.70;86.00;;;;;;5108250;28;20708;-78
2023/07/11 13:12:11;;;;;;;2.80;2.60;;;32.90;86.70;;;;;;5107889;27;20213;-79
2023/07/11 13:14:38;;;;;;;3.35;2.50;;;32.90;86.00;;;;;;5114979;27;20285;-78
2023/07/11 13:17:05;;;;;;;2.88;2.20;;;32.90;84.60;;;;;;5116229;27;20278;-78
2023/07/11 13:19:32;;;;;;;2.90;2.60;;;32.90;85.00;;;;;;5107768;28;20261;-78
2023/07/11 13:21:59;;;;;;;3.13;2.65;;;33.00;85.10;;;;;;5107881;28;20898;-78
2023/07/11 13:24:28;;;;;;;3.13;2.80;;;33.00;83.90;;;;;;5117803;27;20216;-78
2023/07/11 13:27:04;;;;;;;2.40;2.20;;;33.20;84.80;;;;;;5128010;27;20911;-79
2023/07/11 13:29:36;;;;;;;2.42;2.30;;;33.30;84.00;;;;;;5128470;27;20208;-78
2023/07/11 13:32:06;;;;;;;8.52;2.97;;;33.40;84.60;;;;;;5128275;27;20217;-78
2023/07/11 13:34:33;;;;;;;3.30;2.20;;;33.50;84.30;;;;;;5123653;27;20279;-79
2023/07/11 13:37:00;;;;;;;2.50;2.30;;;33.60;82.80;;;;;;5127849;27;20732;-78
2023/07/11 13:39:33;;;;;;;4.65;2.40;;;33.70;83.00;;;;;;5128297;27;20312;-78
2023/07/11 13:42:10;;;;;;;2.78;2.58;;;33.80;82.40;;;;;;5127645;27;20194;-78
2023/07/11 13:44:40;;;;;;;2.90;2.70;;;33.80;84.20;;;;;;5121236;27;20194;-78
2023/07/11 13:47:14;;;;;;;2.88;2.58;;;33.70;85.00;;;;;;5106910;28;20197;-78
2023/07/11 13:49:44;;;;;;;4.70;2.72;;;33.50;83.80;;;;;;5107125;28;20435;-78
2023/07/11 13:52:20;;;;;;;2.90;2.70;;;33.40;86.00;;;;;;5106858;28;20234;-78
2023/07/11 13:54:52;;;;;;;2.88;2.67;;;33.30;83.10;;;;;;5123513;27;20276;-78
2023/07/11 13:57:21;;;;;;;3.20;2.70;;;33.30;81.40;;;;;;5127727;27;20189;-78
2023/07/11 13:59:48;;;;;;;4.43;3.22;;;33.10;82.00;;;;;;5127066;27;20209;-78
2023/07/11 14:02:16;;;;;;;4.45;2.90;;;33.20;82.90;;;;;;5127625;27;20296;-78
2023/07/11 14:04:43;;;;;;;2.65;2.42;;;33.30;80.90;;;;;;5124546;27;20265;-78
2023/07/11 14:07:11;;;;;;;2.97;2.78;;;33.40;81.60;;;;;;5106630;28;20738;-78
2023/07/11 14:09:38;;;;;;;5.63;3.00;;;33.20;80.30;;;;;;5106783;28;20787;-78
2023/07/11 14:12:06;;;;;;;3.25;3.05;;;33.40;81.20;;;;;;5107162;27;20328;-78
2023/07/11 14:14:36;;;;;;;4.93;2.95;;;33.50;80.80;;;;;;5106900;28;20206;-78
2023/07/11 14:17:03;;;;;;;3.50;3.20;;;33.50;78.70;;;;;;5106721;28;20516;-78
2023/07/11 14:19:32;;;;;;;4.65;3.28;;;33.50;79.30;;;;;;5105837;28;20789;-80
2023/07/11 14:22:02;;;;;;;3.63;3.00;;;33.50;79.40;;;;;;5112164;27;20210;-78
2023/07/11 14:24:29;;;;;;;3.25;3.00;;;33.50;80.70;;;;;;5126269;27;20205;-78
2023/07/11 14:26:56;;;;;;;3.42;3.13;;;33.50;78.50;;;;;;5126153;27;20461;-78
2023/07/11 14:29:25;;;;;;;4.20;3.00;;;33.50;79.00;;;;;;5126165;27;20262;-78
2023/07/11 14:31:54;;;;;;;3.05;2.80;;;33.40;81.50;;;;;;5126528;27;20256;-78